Time;durP1;ratioP1;P1;durP2;ratioP2;P2;SDS_P1;SDS_P2;PMS_P1;PMS_P2;Temp;Humidity;BMP_temperature;BMP_pressure;BME280_temperature;BME280_humidity;BME280_pressure;Samples;Min_cycle;Max_cycle;Signal;HPM_P1;HPM_P2
2022/12/22 03:27:09;;;;;;;12.25;6.25;;;;;;;;;;5033481;28;20075;-39
2022/12/22 03:29:34;;;;;;;9.95;6.20;;;;;;;;;;5033191;28;20022;-39
2022/12/22 03:32:00;;;;;;;13.15;5.95;;;;;;;;;;5033591;28;20029;-39
2022/12/22 03:34:25;;;;;;;9.15;6.22;;;;;;;;;;5033125;28;20401;-39
2022/12/22 03:36:50;;;;;;;9.23;4.78;;;;;;;;;;5033198;28;20111;-39
2022/12/22 03:39:16;;;;;;;9.48;5.70;;;;;;;;;;5033080;28;20035;-39
2022/12/22 03:47:09;;;;;;;10.82;5.32;;;;;;;;;;5033281;28;20064;-39
2022/12/22 03:49:34;;;;;;;12.05;5.38;;;;;;;;;;5033088;28;20472;-39
2022/12/22 03:51:59;;;;;;;9.90;6.07;;;;;;;;;;5032905;28;20064;-39
2022/12/22 03:54:25;;;;;;;10.93;6.35;;;;;;;;;;5032815;28;20025;-39
2022/12/22 03:56:50;;;;;;;9.30;4.47;;;;;;;;;;5032931;28;20026;-39
2022/12/22 03:59:16;;;;;;;8.95;4.47;;;;;;;;;;5032669;28;20053;-39
2022/12/22 04:01:43;;;;;;;8.93;5.43;;;;;;;;;;5032760;28;20037;-39
2022/12/22 04:04:09;;;;;;;10.50;4.65;;;;;;;;;;5032594;28;20026;-39
2022/12/22 04:06:34;;;;;;;7.28;5.25;;;;;;;;;;5032525;28;20495;-39
2022/12/22 04:09:00;;;;;;;8.07;5.00;;;;;;;;;;5032623;28;20026;-39
2022/12/22 04:14:09;;;;;;;11.40;5.10;;;;;;;;;;5032437;28;20515;-39
2022/12/22 04:16:34;;;;;;;14.82;8.32;;;;;;;;;;5032605;28;20096;-39
2022/12/22 04:19:00;;;;;;;12.32;5.28;;;;;;;;;;5032635;28;20037;-39
2022/12/22 04:21:25;;;;;;;9.30;4.93;;;;;;;;;;5032562;28;20032;-39
2022/12/22 04:23:51;;;;;;;9.20;5.45;;;;;;;;;;5032516;28;20038;-39
2022/12/22 04:26:17;;;;;;;14.52;5.75;;;;;;;;;;5031840;28;20167;-39
2022/12/22 04:28:43;;;;;;;12.07;4.93;;;;;;;;;;5032371;28;20029;-39
2022/12/22 04:31:08;;;;;;;10.27;5.38;;;;;;;;;;5032083;28;20021;-39
2022/12/22 04:33:33;;;;;;;8.43;5.28;;;;;;;;;;5032221;28;20076;-39
2022/12/22 04:35:59;;;;;;;8.85;4.78;;;;;;;;;;5032127;28;20029;-39
2022/12/22 04:38:24;;;;;;;8.73;4.38;;;;;;;;;;5032288;28;20037;-40
2022/12/22 04:40:49;;;;;;;6.60;3.95;;;;;;;;;;5032116;28;20399;-39
2022/12/22 04:43:15;;;;;;;7.82;4.53;;;;;;;;;;5031889;28;20037;-39
2022/12/22 04:45:40;;;;;;;5.57;4.00;;;;;;;;;;5031654;28;20037;-39
2022/12/22 04:48:05;;;;;;;10.40;5.22;;;;;;;;;;5031943;28;20040;-39
2022/12/22 04:50:31;;;;;;;6.07;3.15;;;;;;;;;;5031809;28;20037;-39
2022/12/22 04:52:56;;;;;;;7.50;4.93;;;;;;;;;;5032084;28;20044;-39
2022/12/22 04:55:21;;;;;;;10.25;4.97;;;;;;;;;;5031751;28;20040;-39
2022/12/22 04:57:47;;;;;;;7.80;4.40;;;;;;;;;;5031930;28;20399;-40
2022/12/22 05:00:12;;;;;;;9.65;5.38;;;;;;;;;;5031758;28;20044;-39
2022/12/22 05:02:37;;;;;;;8.45;3.97;;;;;;;;;;5031728;28;20037;-39
2022/12/22 05:05:03;;;;;;;8.07;3.85;;;;;;;;;;5031905;28;20813;-39
2022/12/22 05:07:28;;;;;;;7.97;4.70;;;;;;;;;;5031777;28;20394;-39
2022/12/22 05:09:54;;;;;;;7.18;3.75;;;;;;;;;;5031700;28;20116;-39
2022/12/22 05:15:03;;;;;;;10.73;5.80;;;;;;;;;;5031559;28;20041;-39
2022/12/22 05:17:29;;;;;;;8.20;4.13;;;;;;;;;;5031582;28;20083;-39
2022/12/22 05:19:54;;;;;;;7.38;4.72;;;;;;;;;;5031693;28;20075;-39
2022/12/22 05:22:19;;;;;;;6.25;4.60;;;;;;;;;;5031395;28;20025;-40
2022/12/22 05:24:45;;;;;;;8.85;5.35;;;;;;;;;;5031445;28;20080;-39
2022/12/22 05:27:10;;;;;;;8.35;4.13;;;;;;;;;;5031657;28;20052;-39
2022/12/22 05:29:36;;;;;;;7.00;3.95;;;;;;;;;;5013498;28;20057;-39
2022/12/22 05:32:01;;;;;;;7.38;4.00;;;;;;;;;;5031362;28;20030;-39
2022/12/22 05:34:27;;;;;;;7.57;4.22;;;;;;;;;;5031198;28;20030;-39
2022/12/22 05:36:52;;;;;;;6.47;3.25;;;;;;;;;;5031961;28;20032;-40
2022/12/22 05:39:18;;;;;;;7.18;3.78;;;;;;;;;;5035252;28;20029;-39
2022/12/22 05:41:43;;;;;;;6.55;4.55;;;;;;;;;;5035550;28;20087;-39
2022/12/22 05:44:09;;;;;;;6.15;3.40;;;;;;;;;;5035263;28;20515;-39
2022/12/22 05:46:34;;;;;;;4.43;2.78;;;;;;;;;;5035026;28;20041;-40
2022/12/22 05:48:59;;;;;;;6.13;3.83;;;;;;;;;;5034002;28;20033;-39
2022/12/22 05:51:25;;;;;;;5.53;3.97;;;;;;;;;;5035504;28;20030;-40
2022/12/22 05:53:50;;;;;;;6.10;4.38;;;;;;;;;;5035024;28;20033;-39
2022/12/22 05:56:15;;;;;;;6.20;3.65;;;;;;;;;;5035189;28;20024;-39
2022/12/22 05:58:41;;;;;;;9.18;4.93;;;;;;;;;;5034926;28;20095;-39
2022/12/22 06:01:06;;;;;;;9.50;4.65;;;;;;;;;;5035066;28;20053;-39
2022/12/22 06:03:32;;;;;;;4.97;3.17;;;;;;;;;;5033461;28;20128;-39
2022/12/22 06:05:57;;;;;;;7.95;4.35;;;;;;;;;;5035198;28;20104;-39
2022/12/22 06:08:23;;;;;;;8.82;4.30;;;;;;;;;;5035121;28;20598;-39
2022/12/22 06:10:48;;;;;;;8.18;2.72;;;;;;;;;;5034758;28;20101;-39
2022/12/22 06:13:14;;;;;;;7.38;3.78;;;;;;;;;;5035174;28;20044;-40
2022/12/22 06:15:39;;;;;;;6.00;3.47;;;;;;;;;;5034642;28;20546;-39
2022/12/22 06:18:05;;;;;;;6.65;3.50;;;;;;;;;;5034704;28;20036;-44
2022/12/22 06:20:30;;;;;;;10.75;4.20;;;;;;;;;;5034395;28;20026;-39
2022/12/22 06:22:56;;;;;;;7.28;4.80;;;;;;;;;;5034553;28;20030;-39
2022/12/22 06:25:22;;;;;;;4.90;3.70;;;;;;;;;;5016795;28;20033;-39
2022/12/22 06:27:47;;;;;;;7.68;2.90;;;;;;;;;;5034398;28;20128;-39
2022/12/22 06:30:14;;;;;;;5.97;3.13;;;;;;;;;;5034781;28;20064;-39
2022/12/22 06:32:39;;;;;;;7.53;3.45;;;;;;;;;;5034364;28;20441;-39
2022/12/22 06:35:05;;;;;;;5.13;3.95;;;;;;;;;;5016654;28;20021;-40
2022/12/22 06:37:31;;;;;;;5.68;3.80;;;;;;;;;;5034293;28;20049;-39
2022/12/22 06:39:57;;;;;;;8.88;4.38;;;;;;;;;;5034532;28;20053;-39
2022/12/22 06:45:06;;;;;;;5.18;3.33;;;;;;;;;;5033785;28;20500;-39
2022/12/22 06:47:32;;;;;;;6.82;3.92;;;;;;;;;;5033999;28;20033;-39
2022/12/22 06:50:00;;;;;;;5.72;3.88;;;;;;;;;;5034029;28;20030;-39
2022/12/22 06:52:25;;;;;;;8.50;3.90;;;;;;;;;;5034006;28;20033;-40
2022/12/22 06:54:51;;;;;;;7.40;3.45;;;;;;;;;;5033925;28;20095;-40
2022/12/22 06:57:16;;;;;;;6.78;3.05;;;;;;;;;;5016280;28;20028;-39
2022/12/22 06:59:42;;;;;;;4.75;3.50;;;;;;;;;;5034089;28;20380;-39
2022/12/22 07:02:09;;;;;;;6.90;3.25;;;;;;;;;;5016467;28;20103;-39
2022/12/22 07:04:35;;;;;;;7.40;3.95;;;;;;;;;;5033900;28;20423;-39
2022/12/22 07:07:00;;;;;;;12.07;4.32;;;;;;;;;;5034096;28;20022;-39
2022/12/22 07:09:25;;;;;;;8.20;3.45;;;;;;;;;;5034012;28;20037;-39
2022/12/22 07:11:51;;;;;;;5.10;3.20;;;;;;;;;;5033864;28;20061;-39
2022/12/22 07:14:16;;;;;;;7.32;4.80;;;;;;;;;;5033952;28;20057;-39
2022/12/22 07:16:41;;;;;;;5.05;3.70;;;;;;;;;;5033799;28;20018;-39
2022/12/22 07:19:07;;;;;;;4.75;2.95;;;;;;;;;;5033558;28;20100;-39
2022/12/22 07:21:32;;;;;;;9.48;4.50;;;;;;;;;;5033631;28;20064;-39
2022/12/22 07:23:58;;;;;;;5.05;3.75;;;;;;;;;;5033409;28;20087;-39
2022/12/22 07:26:23;;;;;;;6.18;3.80;;;;;;;;;;5033400;28;20025;-39
2022/12/22 07:28:48;;;;;;;5.45;3.20;;;;;;;;;;5033214;28;20045;-39
2022/12/22 07:31:14;;;;;;;5.18;3.55;;;;;;;;;;5033591;28;20025;-39
2022/12/22 07:33:40;;;;;;;7.97;4.68;;;;;;;;;;5033215;28;20033;-39
2022/12/22 07:36:07;;;;;;;9.98;4.30;;;;;;;;;;5033619;28;20025;-39
2022/12/22 07:38:36;;;;;;;4.47;3.55;;;;;;;;;;5033140;28;20113;-40
2022/12/22 07:41:02;;;;;;;8.43;4.85;;;;;;;;;;5033299;28;20464;-39
2022/12/22 07:43:27;;;;;;;5.60;3.42;;;;;;;;;;5033326;28;20045;-39
2022/12/22 07:45:53;;;;;;;5.55;3.45;;;;;;;;;;5032837;28;20049;-39
2022/12/22 07:51:04;;;;;;;6.97;4.03;;;;;;;;;;5033058;28;20591;-39
2022/12/22 07:53:29;;;;;;;3.72;2.47;;;;;;;;;;5032849;28;20044;-39
2022/12/22 07:55:54;;;;;;;6.63;4.13;;;;;;;;;;5032854;28;20108;-39
2022/12/22 07:58:20;;;;;;;5.82;3.30;;;;;;;;;;5032903;28;20107;-39
2022/12/22 08:00:45;;;;;;;6.65;3.97;;;;;;;;;;5031767;28;20392;-39
2022/12/22 08:03:10;;;;;;;4.65;3.38;;;;;;;;;;5032759;28;20124;-39
2022/12/22 08:05:36;;;;;;;8.20;4.50;;;;;;;;;;5032665;28;20033;-39
2022/12/22 08:08:02;;;;;;;7.38;4.20;;;;;;;;;;5032634;28;20510;-39
2022/12/22 08:10:27;;;;;;;7.00;4.50;;;;;;;;;;5032532;28;20029;-39
2022/12/22 08:12:53;;;;;;;11.30;4.13;;;;;;;;;;5032755;28;20065;-39
2022/12/22 08:15:19;;;;;;;7.43;3.13;;;;;;;;;;5032705;28;20050;-39
2022/12/22 08:17:44;;;;;;;5.32;3.97;;;;;;;;;;5032435;28;20021;-38
2022/12/22 08:20:10;;;;;;;7.22;4.53;;;;;;;;;;5032351;28;20076;-39
2022/12/22 08:22:35;;;;;;;7.55;4.38;;;;;;;;;;5032174;28;20456;-39
2022/12/22 08:25:01;;;;;;;9.38;5.15;;;;;;;;;;5032265;28;20038;-40
2022/12/22 08:27:29;;;;;;;8.93;4.18;;;;;;;;;;5032349;28;20104;-39
2022/12/22 08:29:56;;;;;;;8.55;5.20;;;;;;;;;;5032293;28;20084;-39
2022/12/22 08:32:21;;;;;;;8.15;4.97;;;;;;;;;;5032442;28;20649;-39
2022/12/22 08:34:49;;;;;;;7.43;4.30;;;;;;;;;;5032068;28;20021;-39
2022/12/22 08:37:17;;;;;;;8.35;4.97;;;;;;;;;;5032094;28;20079;-39
2022/12/22 08:39:45;;;;;;;9.10;4.18;;;;;;;;;;5031939;28;20485;-39
2022/12/22 08:42:13;;;;;;;6.47;3.97;;;;;;;;;;5032016;28;20108;-39
2022/12/22 08:44:38;;;;;;;7.72;4.20;;;;;;;;;;5031788;28;20094;-40
2022/12/22 08:47:04;;;;;;;9.07;4.45;;;;;;;;;;5014078;28;20057;-39
2022/12/22 08:49:30;;;;;;;7.05;4.70;;;;;;;;;;5014514;28;20112;-39
2022/12/22 08:51:55;;;;;;;6.30;4.20;;;;;;;;;;5014082;28;20808;-39
2022/12/22 08:54:21;;;;;;;8.88;4.72;;;;;;;;;;5031769;28;20033;-39
2022/12/22 08:56:46;;;;;;;6.03;4.40;;;;;;;;;;5031852;28;20029;-39
2022/12/22 08:59:12;;;;;;;13.43;5.53;;;;;;;;;;5031638;28;20033;-39
2022/12/22 09:01:38;;;;;;;7.95;4.18;;;;;;;;;;5031697;28;20021;-39
2022/12/22 09:04:05;;;;;;;8.82;4.60;;;;;;;;;;5030244;28;20132;-39
2022/12/22 09:06:31;;;;;;;9.15;5.20;;;;;;;;;;5031769;28;20037;-39
2022/12/22 09:08:59;;;;;;;5.97;3.78;;;;;;;;;;5031604;28;20764;-39
2022/12/22 09:11:24;;;;;;;12.00;6.43;;;;;;;;;;5013821;28;20475;-39
2022/12/22 09:13:50;;;;;;;11.82;5.43;;;;;;;;;;5031739;28;20087;-39
2022/12/22 09:16:16;;;;;;;9.27;4.25;;;;;;;;;;5031573;28;20602;-39
2022/12/22 09:18:41;;;;;;;8.48;3.70;;;;;;;;;;5031311;28;20029;-39
2022/12/22 09:21:07;;;;;;;6.35;4.55;;;;;;;;;;5031416;28;20025;-39
2022/12/22 09:23:35;;;;;;;8.88;4.57;;;;;;;;;;5031234;28;20037;-39
2022/12/22 09:26:05;;;;;;;8.90;4.53;;;;;;;;;;5031391;28;20028;-40
2022/12/22 09:28:31;;;;;;;10.52;4.55;;;;;;;;;;5031224;28;20072;-39
2022/12/22 09:30:56;;;;;;;9.20;5.35;;;;;;;;;;5030715;28;20053;-39
2022/12/22 09:33:25;;;;;;;9.60;4.43;;;;;;;;;;5031576;28;20067;-40
2022/12/22 09:35:50;;;;;;;6.68;4.93;;;;;;;;;;5031245;28;20091;-39
2022/12/22 09:38:15;;;;;;;7.47;4.20;;;;;;;;;;5031577;28;20064;-39
2022/12/22 09:40:41;;;;;;;12.48;5.75;;;;;;;;;;5031459;28;20049;-39
2022/12/22 09:43:09;;;;;;;9.88;5.22;;;;;;;;;;5031213;28;20076;-39
2022/12/22 09:45:34;;;;;;;15.10;6.32;;;;;;;;;;5031119;28;20136;-39
2022/12/22 09:48:00;;;;;;;10.73;5.75;;;;;;;;;;5031208;28;20112;-39
2022/12/22 09:50:26;;;;;;;9.45;3.83;;;;;;;;;;5031186;28;20030;-39
2022/12/22 09:52:57;;;;;;;8.30;4.93;;;;;;;;;;5031056;28;20034;-39
2022/12/22 09:55:23;;;;;;;11.88;4.80;;;;;;;;;;5031079;28;20123;-39
2022/12/22 09:57:49;;;;;;;6.43;4.43;;;;;;;;;;5013337;28;20181;-39
2022/12/22 10:00:20;;;;;;;7.30;3.92;;;;;;;;;;5030998;28;20042;-39
2022/12/22 10:02:48;;;;;;;13.75;5.35;;;;;;;;;;5030957;28;20029;-39
2022/12/22 10:05:16;;;;;;;10.98;5.90;;;;;;;;;;5031338;28;20025;-39
2022/12/22 10:07:43;;;;;;;16.55;9.07;;;;;;;;;;5031228;28;20702;-39
2022/12/22 10:10:11;;;;;;;14.77;6.90;;;;;;;;;;5030939;28;20022;-39
2022/12/22 10:12:37;;;;;;;9.18;6.50;;;;;;;;;;5031203;28;20057;-39
2022/12/22 10:15:02;;;;;;;13.88;7.20;;;;;;;;;;5031156;28;20480;-39
2022/12/22 10:17:31;;;;;;;17.05;8.02;;;;;;;;;;5030906;28;20056;-39
2022/12/22 10:20:15;;;;;;;16.25;8.38;;;;;;;;;;5031166;28;20047;-39
2022/12/22 10:22:49;;;;;;;18.40;8.23;;;;;;;;;;5031416;28;20388;-39
2022/12/22 10:25:35;;;;;;;14.73;6.18;;;;;;;;;;5034552;28;20053;-39
2022/12/22 10:28:02;;;;;;;16.02;8.60;;;;;;;;;;5034655;28;20030;-39
2022/12/22 10:30:32;;;;;;;19.95;7.20;;;;;;;;;;5034426;28;20376;-39
2022/12/22 10:33:11;;;;;;;14.55;9.68;;;;;;;;;;5034471;28;20072;-39
2022/12/22 10:35:47;;;;;;;21.15;11.73;;;;;;;;;;5034339;28;20033;-39
2022/12/22 10:38:31;;;;;;;24.33;10.60;;;;;;;;;;5034228;28;20034;-39
2022/12/22 10:40:58;;;;;;;26.48;10.40;;;;;;;;;;5034272;28;20035;-39
2022/12/22 10:43:25;;;;;;;27.15;10.23;;;;;;;;;;5034125;28;20029;-44
2022/12/22 10:45:52;;;;;;;21.48;11.18;;;;;;;;;;5033961;28;20045;-39
2022/12/22 10:48:24;;;;;;;29.08;11.30;;;;;;;;;;5034136;28;20451;-39
2022/12/22 10:50:49;;;;;;;24.60;11.27;;;;;;;;;;5034019;28;20484;-39
2022/12/22 10:53:15;;;;;;;27.30;11.52;;;;;;;;;;5016489;28;20105;-39
2022/12/22 10:55:40;;;;;;;31.15;12.15;;;;;;;;;;5016238;28;20700;-40
2022/12/22 10:58:09;;;;;;;24.30;12.02;;;;;;;;;;5034232;28;20053;-39
2022/12/22 11:00:35;;;;;;;25.02;12.30;;;;;;;;;;4999750;28;20128;-39
2022/12/22 11:03:01;;;;;;;31.10;15.15;;;;;;;;;;5033847;28;20025;-39
2022/12/22 11:05:27;;;;;;;30.65;15.82;;;;;;;;;;5033838;28;20021;-39
2022/12/22 11:07:53;;;;;;;17.33;10.93;;;;;;;;;;5033718;28;20025;-39
2022/12/22 11:10:32;;;;;;;27.25;12.45;;;;;;;;;;5032443;28;20029;-39
2022/12/22 11:13:16;;;;;;;28.73;10.82;;;;;;;;;;5016261;28;20048;-40
2022/12/22 11:15:56;;;;;;;26.33;14.70;;;;;;;;;;5015851;28;20030;-39
2022/12/22 11:18:50;;;;;;;34.58;13.48;;;;;;;;;;5033584;28;20085;-39
2022/12/22 11:21:23;;;;;;;33.10;13.38;;;;;;;;;;5016274;28;20045;-39
2022/12/22 11:24:09;;;;;;;25.45;14.00;;;;;;;;;;5016112;28;20037;-40
2022/12/22 11:26:54;;;;;;;32.22;13.45;;;;;;;;;;5033355;28;20116;-40
2022/12/22 11:29:27;;;;;;;26.83;11.50;;;;;;;;;;5033397;28;20056;-39
2022/12/22 11:32:11;;;;;;;27.42;12.15;;;;;;;;;;5033349;28;20021;-39
2022/12/22 11:34:48;;;;;;;29.45;12.25;;;;;;;;;;5032070;28;20033;-39
2022/12/22 11:37:37;;;;;;;31.33;14.52;;;;;;;;;;5033358;28;20033;-39
2022/12/22 11:40:15;;;;;;;36.05;11.85;;;;;;;;;;5022594;28;20041;-39
2022/12/22 11:42:40;;;;;;;32.05;13.98;;;;;;;;;;5033082;28;20030;-39
2022/12/22 11:45:18;;;;;;;26.33;12.82;;;;;;;;;;5032925;28;20514;-39
2022/12/22 11:47:53;;;;;;;37.08;14.25;;;;;;;;;;5033036;28;20043;-39
2022/12/22 11:50:19;;;;;;;27.65;12.65;;;;;;;;;;5033010;28;20184;-39
2022/12/22 11:53:14;;;;;;;29.33;13.57;;;;;;;;;;5032914;28;20096;-39
2022/12/22 11:55:58;;;;;;;25.85;13.80;;;;;;;;;;5030605;28;20034;-39
2022/12/22 11:58:32;;;;;;;34.75;14.23;;;;;;;;;;5032879;28;20025;-39
2022/12/22 12:01:17;;;;;;;31.38;12.98;;;;;;;;;;5032798;28;20030;-39
2022/12/22 12:03:51;;;;;;;24.08;10.38;;;;;;;;;;5032638;28;20038;-39
2022/12/22 12:06:26;;;;;;;31.13;13.68;;;;;;;;;;5032745;28;20045;-39
2022/12/22 12:08:57;;;;;;;30.67;12.13;;;;;;;;;;5032522;28;20025;-39
2022/12/22 12:11:26;;;;;;;38.47;15.82;;;;;;;;;;5032547;28;20033;-39
2022/12/22 12:13:57;;;;;;;37.42;12.50;;;;;;;;;;5032501;28;20499;-39
2022/12/22 12:16:25;;;;;;;34.40;14.18;;;;;;;;;;5014881;28;20100;-39
2022/12/22 12:18:51;;;;;;;40.47;13.90;;;;;;;;;;5032619;28;20035;-39
2022/12/22 12:21:52;;;;;;;41.53;15.02;;;;;;;;;;5032410;28;20498;-39
2022/12/22 12:24:36;;;;;;;36.47;15.48;;;;;;;;;;4951807;29;20047;-39
2022/12/22 12:27:08;;;;;;;34.65;12.25;;;;;;;;;;4992082;28;20447;-39
2022/12/22 12:29:39;;;;;;;30.15;13.70;;;;;;;;;;5032241;28;20037;-39
2022/12/22 12:32:08;;;;;;;43.53;13.23;;;;;;;;;;5014827;28;20103;-40
2022/12/22 12:34:36;;;;;;;26.70;13.70;;;;;;;;;;5032201;28;20415;-39
2022/12/22 12:37:21;;;;;;;29.98;13.82;;;;;;;;;;5032191;28;20040;-39
2022/12/22 12:39:59;;;;;;;33.25;14.75;;;;;;;;;;5031971;28;20036;-40
2022/12/22 12:42:34;;;;;;;32.08;13.23;;;;;;;;;;5032068;28;20037;-39
2022/12/22 12:45:01;;;;;;;33.67;15.27;;;;;;;;;;5031579;28;20515;-39
2022/12/22 12:47:26;;;;;;;25.60;10.90;;;;;;;;;;5013916;28;20411;-39
2022/12/22 12:49:53;;;;;;;30.52;11.70;;;;;;;;;;5031821;28;20038;-39
2022/12/22 12:52:38;;;;;;;27.88;12.93;;;;;;;;;;5031783;28;20028;-39
2022/12/22 12:55:19;;;;;;;22.65;12.43;;;;;;;;;;5031857;28;20111;-39
2022/12/22 12:57:45;;;;;;;31.27;13.45;;;;;;;;;;5031712;28;20056;-39
2022/12/22 13:00:29;;;;;;;22.65;12.27;;;;;;;;;;5031633;28;20033;-39
2022/12/22 13:02:56;;;;;;;22.17;11.07;;;;;;;;;;5013928;28;20029;-39
2022/12/22 13:05:41;;;;;;;25.17;12.45;;;;;;;;;;5031637;28;20034;-40
2022/12/22 13:08:14;;;;;;;26.85;10.32;;;;;;;;;;5031597;28;20037;-39
2022/12/22 13:10:41;;;;;;;22.98;10.80;;;;;;;;;;5031464;28;20029;-39
2022/12/22 13:13:22;;;;;;;21.75;13.07;;;;;;;;;;5031541;28;20029;-39
2022/12/22 13:16:08;;;;;;;28.23;14.15;;;;;;;;;;5031473;28;20098;-40
2022/12/22 13:18:33;;;;;;;26.83;13.40;;;;;;;;;;5013733;28;20025;-39
2022/12/22 13:21:05;;;;;;;38.95;13.55;;;;;;;;;;5031416;28;20021;-39
2022/12/22 13:23:38;;;;;;;29.52;12.65;;;;;;;;;;5031362;28;20508;-39
2022/12/22 13:26:12;;;;;;;26.90;11.10;;;;;;;;;;5031761;28;20037;-39
2022/12/22 13:28:39;;;;;;;28.02;12.32;;;;;;;;;;5031185;28;20021;-39
2022/12/22 13:31:19;;;;;;;25.05;12.98;;;;;;;;;;5031450;28;20032;-39
2022/12/22 13:33:46;;;;;;;19.10;11.98;;;;;;;;;;5031260;28;20029;-39
2022/12/22 13:36:25;;;;;;;31.48;15.18;;;;;;;;;;5031342;28;20539;-40
2022/12/22 13:39:00;;;;;;;30.67;13.88;;;;;;;;;;5031241;28;20026;-39
2022/12/22 13:41:26;;;;;;;28.85;12.65;;;;;;;;;;5031274;28;20085;-39
2022/12/22 13:43:55;;;;;;;22.77;11.52;;;;;;;;;;5031136;28;20029;-39
2022/12/22 13:46:21;;;;;;;25.38;12.20;;;;;;;;;;5030987;28;20049;-39
2022/12/22 13:48:48;;;;;;;22.33;11.98;;;;;;;;;;5031066;28;20025;-40
2022/12/22 13:51:18;;;;;;;33.42;12.65;;;;;;;;;;5031137;28;20113;-39
2022/12/22 13:53:46;;;;;;;29.98;13.10;;;;;;;;;;5031359;28;20061;-39
2022/12/22 13:56:13;;;;;;;25.33;14.30;;;;;;;;;;5031319;28;20029;-39
2022/12/22 13:58:40;;;;;;;34.67;11.98;;;;;;;;;;5033005;28;20084;-39
2022/12/22 14:01:08;;;;;;;32.33;13.27;;;;;;;;;;5035258;28;20029;-39
2022/12/22 14:03:34;;;;;;;29.20;10.48;;;;;;;;;;5034896;28;20037;-39
2022/12/22 14:06:00;;;;;;;27.58;12.05;;;;;;;;;;5034867;28;20404;-39
2022/12/22 14:08:29;;;;;;;34.53;13.18;;;;;;;;;;5034888;28;20025;-39
2022/12/22 14:10:54;;;;;;;27.55;12.93;;;;;;;;;;5034772;28;20052;-38
2022/12/22 14:13:22;;;;;;;22.50;10.30;;;;;;;;;;5034779;28;20022;-39
2022/12/22 14:15:57;;;;;;;29.38;13.35;;;;;;;;;;5034973;28;20040;-39
2022/12/22 14:18:25;;;;;;;29.27;12.13;;;;;;;;;;5034733;28;20044;-39
2022/12/22 14:20:51;;;;;;;27.52;12.43;;;;;;;;;;5034644;28;20024;-39
2022/12/22 14:23:26;;;;;;;28.35;11.02;;;;;;;;;;5034585;28;20033;-39
2022/12/22 14:25:53;;;;;;;32.03;13.85;;;;;;;;;;5034739;28;20598;-39
2022/12/22 14:28:26;;;;;;;28.80;12.98;;;;;;;;;;5034804;28;20392;-39
2022/12/22 14:30:57;;;;;;;33.05;12.77;;;;;;;;;;5034472;28;20030;-39
2022/12/22 14:33:22;;;;;;;35.28;13.65;;;;;;;;;;5034445;28;20037;-39
2022/12/22 14:35:49;;;;;;;33.90;14.38;;;;;;;;;;5034388;28;20037;-39
2022/12/22 14:38:20;;;;;;;21.45;11.30;;;;;;;;;;5034299;28;20484;-40
2022/12/22 14:40:46;;;;;;;21.85;10.00;;;;;;;;;;5034116;28;20516;-39
2022/12/22 14:43:15;;;;;;;32.55;12.02;;;;;;;;;;5034226;28;20037;-40
2022/12/22 14:45:40;;;;;;;32.03;12.32;;;;;;;;;;5033965;28;20057;-39
2022/12/22 14:48:07;;;;;;;33.67;14.00;;;;;;;;;;5034414;28;20030;-39
2022/12/22 14:50:33;;;;;;;25.27;10.80;;;;;;;;;;5034094;28;20040;-39
2022/12/22 14:52:59;;;;;;;29.98;11.75;;;;;;;;;;5033971;28;20021;-39
2022/12/22 14:55:24;;;;;;;22.60;10.43;;;;;;;;;;5016377;28;20484;-39
2022/12/22 14:57:53;;;;;;;24.15;10.65;;;;;;;;;;5033831;28;20028;-39
2022/12/22 15:00:21;;;;;;;26.15;11.88;;;;;;;;;;5034206;28;20550;-39
2022/12/22 15:02:52;;;;;;;25.63;10.77;;;;;;;;;;5033820;28;20029;-39
2022/12/22 15:05:26;;;;;;;22.15;11.02;;;;;;;;;;5034172;28;20060;-39
2022/12/22 15:07:53;;;;;;;27.40;11.32;;;;;;;;;;5033647;28;20026;-39
2022/12/22 15:10:19;;;;;;;32.22;12.75;;;;;;;;;;5033679;28;20021;-39
2022/12/22 15:12:46;;;;;;;20.90;11.38;;;;;;;;;;5033723;28;20494;-40
2022/12/22 15:15:13;;;;;;;20.85;10.40;;;;;;;;;;5033672;28;20112;-39
2022/12/22 15:17:38;;;;;;;31.40;11.13;;;;;;;;;;5033537;28;20021;-39
2022/12/22 15:20:04;;;;;;;23.52;12.02;;;;;;;;;;5033686;28;20075;-39
2022/12/22 15:22:30;;;;;;;23.23;11.48;;;;;;;;;;5033750;28;20056;-39
2022/12/22 15:24:55;;;;;;;23.50;10.45;;;;;;;;;;5033162;28;20407;-39
2022/12/22 15:27:21;;;;;;;23.17;11.27;;;;;;;;;;5033451;28;20029;-39
2022/12/22 15:29:49;;;;;;;26.23;11.63;;;;;;;;;;5033256;28;20123;-39
2022/12/22 15:32:15;;;;;;;19.80;9.45;;;;;;;;;;5033697;28;20040;-39
2022/12/22 15:34:41;;;;;;;22.90;10.27;;;;;;;;;;5033352;28;20025;-39
2022/12/22 15:37:09;;;;;;;28.05;11.90;;;;;;;;;;5015571;28;20878;-39
2022/12/22 15:39:35;;;;;;;21.60;9.63;;;;;;;;;;5033225;28;20476;-39
2022/12/22 15:42:00;;;;;;;27.15;11.07;;;;;;;;;;5033214;28;20036;-39
2022/12/22 15:44:26;;;;;;;20.60;11.07;;;;;;;;;;5033044;28;20060;-39
2022/12/22 15:46:55;;;;;;;25.48;11.23;;;;;;;;;;5032888;28;20057;-39
2022/12/22 15:49:22;;;;;;;20.73;9.82;;;;;;;;;;5033341;28;20423;-39
2022/12/22 15:51:49;;;;;;;19.77;10.23;;;;;;;;;;5032922;28;20026;-39
2022/12/22 15:54:15;;;;;;;22.17;11.98;;;;;;;;;;5033073;28;20468;-39
2022/12/22 15:56:41;;;;;;;24.92;10.55;;;;;;;;;;5032783;28;20093;-39
2022/12/22 15:59:12;;;;;;;28.95;9.52;;;;;;;;;;5032810;28;20021;-40
2022/12/22 16:01:38;;;;;;;25.75;11.13;;;;;;;;;;5032851;28;20120;-39
2022/12/22 16:04:04;;;;;;;23.83;9.30;;;;;;;;;;5014928;28;20120;-39
2022/12/22 16:06:30;;;;;;;28.75;7.97;;;;;;;;;;5032701;28;20135;-39
2022/12/22 16:08:55;;;;;;;21.13;10.45;;;;;;;;;;5032884;28;20024;-39
2022/12/22 16:11:21;;;;;;;20.45;9.40;;;;;;;;;;5032620;28;20391;-39
2022/12/22 16:13:48;;;;;;;18.45;9.75;;;;;;;;;;5032542;28;20032;-39
2022/12/22 16:16:13;;;;;;;30.83;11.27;;;;;;;;;;5015224;28;20120;-39
2022/12/22 16:18:39;;;;;;;23.02;9.10;;;;;;;;;;5032356;28;20431;-39
2022/12/22 16:21:06;;;;;;;13.82;7.10;;;;;;;;;;5031852;28;20459;-39
2022/12/22 16:23:32;;;;;;;17.45;8.13;;;;;;;;;;5032590;28;20043;-39
2022/12/22 16:26:00;;;;;;;17.50;7.85;;;;;;;;;;5032263;28;20076;-39
2022/12/22 16:28:25;;;;;;;19.83;8.57;;;;;;;;;;5032285;28;20021;-39
2022/12/22 16:30:51;;;;;;;14.93;7.80;;;;;;;;;;5032503;28;20033;-39
2022/12/22 16:33:17;;;;;;;15.40;7.18;;;;;;;;;;5032185;28;20057;-39
2022/12/22 16:35:42;;;;;;;16.98;7.47;;;;;;;;;;5032052;28;20090;-39
2022/12/22 16:38:08;;;;;;;18.73;8.07;;;;;;;;;;5032139;28;20070;-39
2022/12/22 16:40:42;;;;;;;17.10;9.10;;;;;;;;;;5014302;28;20033;-39
2022/12/22 16:43:34;;;;;;;13.23;7.20;;;;;;;;;;5032017;28;20021;-39
2022/12/22 16:45:59;;;;;;;16.35;7.75;;;;;;;;;;5024186;28;20187;-39
2022/12/22 16:48:31;;;;;;;17.17;7.20;;;;;;;;;;5031130;28;20168;-39
2022/12/22 16:50:57;;;;;;;16.25;7.65;;;;;;;;;;5031010;28;20551;-40
2022/12/22 16:53:22;;;;;;;22.98;9.75;;;;;;;;;;5031395;28;20036;-39
2022/12/22 16:55:48;;;;;;;17.02;9.30;;;;;;;;;;5031130;28;20573;-39
2022/12/22 16:58:13;;;;;;;18.52;8.95;;;;;;;;;;5031181;28;20052;-39
2022/12/22 17:00:40;;;;;;;19.23;8.75;;;;;;;;;;5031209;28;20384;-39
2022/12/22 17:03:21;;;;;;;18.15;9.05;;;;;;;;;;5030846;28;20026;-39
2022/12/22 17:05:51;;;;;;;16.05;7.28;;;;;;;;;;5030918;28;20063;-40
2022/12/22 17:08:38;;;;;;;21.70;8.13;;;;;;;;;;5030870;28;20034;-39
2022/12/22 17:11:05;;;;;;;18.70;9.20;;;;;;;;;;5030772;28;20040;-39
2022/12/22 17:13:31;;;;;;;19.80;7.03;;;;;;;;;;5030827;28;20029;-39
2022/12/22 17:15:56;;;;;;;16.00;8.48;;;;;;;;;;5030762;28;20044;-39
2022/12/22 17:18:23;;;;;;;19.13;9.50;;;;;;;;;;5031009;28;20460;-40
2022/12/22 17:20:54;;;;;;;17.02;8.00;;;;;;;;;;5030698;28;20021;-40
2022/12/22 17:23:22;;;;;;;15.05;7.72;;;;;;;;;;5030593;28;20065;-39
2022/12/22 17:25:47;;;;;;;15.05;7.55;;;;;;;;;;5031008;28;20034;-39
2022/12/22 17:28:13;;;;;;;21.65;8.65;;;;;;;;;;5013245;28;20061;-39
2022/12/22 17:30:38;;;;;;;18.00;9.18;;;;;;;;;;5030860;28;20431;-40
2022/12/22 17:33:04;;;;;;;16.02;8.48;;;;;;;;;;5029402;28;20392;-39
2022/12/22 17:35:32;;;;;;;19.95;9.40;;;;;;;;;;5012901;28;20104;-40
2022/12/22 17:37:57;;;;;;;19.80;8.90;;;;;;;;;;5030358;28;20040;-39
2022/12/22 17:40:25;;;;;;;17.30;9.10;;;;;;;;;;5030796;28;20626;-39
2022/12/22 17:42:51;;;;;;;17.55;7.70;;;;;;;;;;5030365;28;20064;-39
2022/12/22 17:45:16;;;;;;;24.35;7.40;;;;;;;;;;4985303;28;1294470;-39
2022/12/22 17:47:42;;;;;;;22.42;8.52;;;;;;;;;;5031186;28;20036;-39
2022/12/22 17:50:12;;;;;;;21.40;7.60;;;;;;;;;;5031193;28;20030;-39
2022/12/22 17:52:37;;;;;;;20.27;8.20;;;;;;;;;;5031125;28;20032;-39
2022/12/22 17:55:03;;;;;;;19.67;7.18;;;;;;;;;;5031346;28;20368;-39
2022/12/22 17:57:31;;;;;;;23.40;11.32;;;;;;;;;;5031096;28;20044;-40
2022/12/22 17:59:57;;;;;;;22.45;9.07;;;;;;;;;;5030937;28;20079;-39
2022/12/22 18:02:23;;;;;;;21.65;10.40;;;;;;;;;;5013398;28;20026;-39
2022/12/22 18:04:48;;;;;;;24.38;9.32;;;;;;;;;;5030877;28;20433;-40
2022/12/22 18:07:15;;;;;;;21.60;9.32;;;;;;;;;;5031089;28;20258;-39
2022/12/22 18:09:41;;;;;;;20.08;9.35;;;;;;;;;;5030867;28;20029;-39
2022/12/22 18:12:28;;;;;;;18.38;8.18;;;;;;;;;;5031042;28;20037;-39
2022/12/22 18:14:54;;;;;;;17.80;9.30;;;;;;;;;;5031234;28;20033;-39
2022/12/22 18:17:25;;;;;;;21.52;8.77;;;;;;;;;;5031019;28;20028;-39
2022/12/22 18:19:51;;;;;;;16.90;7.93;;;;;;;;;;5030778;28;20034;-39